Time;durP1;ratioP1;P1;durP2;ratioP2;P2;SDS_P1;SDS_P2;PMS_P1;PMS_P2;Temp;Humidity;BMP_temperature;BMP_pressure;BME280_temperature;BME280_humidity;BME280_pressure;Samples;Min_cycle;Max_cycle;Signal;HPM_P1;HPM_P2
2023/06/25 00:00:17;;;;;;;9.05;6.00;;;17.90;99.90;;;;;;5053183;28;20303;-77
2023/06/25 00:02:43;;;;;;;8.70;6.00;;;;;;;;;;5053608;28;20036;-77
2023/06/25 00:05:09;;;;;;;8.20;6.70;;;;;;;;;;5055891;28;20043;-77
2023/06/25 00:07:35;;;;;;;12.40;6.65;;;;;;;;;;5056143;28;20045;-78
2023/06/25 00:10:02;;;;;;;9.35;6.45;;;17.60;99.90;;;;;;5068651;28;20036;-77
2023/06/25 00:12:28;;;;;;;8.10;5.30;;;;;;;;;;5044038;28;20128;-77
2023/06/25 00:14:54;;;;;;;7.32;5.78;;;;;;;;;;5054091;28;20159;-78
2023/06/25 00:17:21;;;;;;;12.77;7.60;;;;;;;;;;5068160;28;20490;-76
2023/06/25 00:19:47;;;;;;;7.68;5.78;;;;;;;;;;5058182;28;20055;-77
2023/06/25 00:22:13;;;;;;;9.90;5.28;;;17.70;99.90;;;;;;5068115;28;20036;-77
2023/06/25 00:24:39;;;;;;;7.82;5.50;;;;;;;;;;5060196;28;20409;-77
2023/06/25 00:27:06;;;;;;;7.07;5.43;;;17.90;99.90;;;;;;5061638;28;20042;-77
2023/06/25 00:29:32;;;;;;;9.77;6.20;;;18.10;99.90;;;;;;5059646;28;20035;-77
2023/06/25 00:31:58;;;;;;;7.55;6.30;;;;;;;;;;5056037;28;20072;-77
2023/06/25 00:34:23;;;;;;;9.10;6.70;;;17.80;99.90;;;;;;5053994;28;20068;-77
2023/06/25 00:36:51;;;;;;;8.32;5.85;;;;;;;;;;5058465;28;20098;-77
2023/06/25 00:39:18;;;;;;;6.07;4.45;;;17.40;99.90;;;;;;5056277;28;20059;-76
2023/06/25 00:41:44;;;;;;;6.20;4.50;;;;;;;;;;5061978;28;20840;-77
2023/06/25 00:44:10;;;;;;;6.18;5.03;;;17.30;99.90;;;;;;5068249;28;20048;-77
2023/06/25 00:46:36;;;;;;;6.82;5.38;;;17.10;99.90;;;;;;5060821;28;20034;-77
2023/06/25 00:49:05;;;;;;;12.40;6.13;;;;;;;;;;5061211;28;20520;-76
2023/06/25 00:51:35;;;;;;;8.63;6.38;;;17.30;99.90;;;;;;5057181;28;20059;-79
2023/06/25 00:54:05;;;;;;;9.65;5.80;;;17.10;99.90;;;;;;5055772;28;20144;-78
2023/06/25 00:56:37;;;;;;;7.53;6.03;;;17.20;99.90;;;;;;5057095;28;20137;-77
2023/06/25 00:59:04;;;;;;;9.10;6.85;;;;;;;;;;5058662;28;20048;-77
2023/06/25 01:01:40;;;;;;;9.02;6.43;;;16.90;99.90;;;;;;5059347;28;20079;-76
2023/06/25 01:04:12;;;;;;;11.60;6.90;;;17.20;99.90;;;;;;5056269;28;20048;-78
2023/06/25 01:06:47;;;;;;;9.23;5.45;;;17.30;99.90;;;;;;5052169;28;20506;-77
2023/06/25 01:09:14;;;;;;;6.68;5.22;;;17.40;99.90;;;;;;5059673;28;20517;-78
2023/06/25 01:11:40;;;;;;;7.93;5.00;;;;;;;;;;5061424;28;20045;-76
2023/06/25 01:14:06;;;;;;;11.43;7.28;;;17.00;99.90;;;;;;5041353;28;20036;-77
2023/06/25 01:16:32;;;;;;;7.43;5.72;;;;;;;;;;5058545;28;20033;-78
2023/06/25 01:18:59;;;;;;;9.80;7.35;;;;;;;;;;5041447;28;20052;-78
2023/06/25 01:21:26;;;;;;;10.68;7.85;;;17.30;99.90;;;;;;5056687;28;20056;-78
2023/06/25 01:23:52;;;;;;;8.63;5.75;;;;;;;;;;5057253;28;20175;-77
2023/06/25 01:26:19;;;;;;;9.07;5.97;;;;;;;;;;5057151;28;20044;-77
2023/06/25 01:28:44;;;;;;;8.32;5.40;;;;;;;;;;5067149;28;20041;-77
2023/06/25 01:31:10;;;;;;;6.78;5.25;;;;;;;;;;5066477;28;20055;-76
2023/06/25 01:33:38;;;;;;;7.38;5.75;;;;;;;;;;5054865;28;20048;-76
2023/06/25 01:36:04;;;;;;;10.40;7.28;;;16.80;99.90;;;;;;5070470;28;20067;-77
2023/06/25 01:38:31;;;;;;;10.65;8.25;;;;;;;;;;5051208;28;20040;-77
2023/06/25 01:40:56;;;;;;;10.85;8.00;;;16.90;99.90;;;;;;5057068;28;20044;-77
2023/06/25 01:43:22;;;;;;;15.13;8.43;;;17.00;99.90;;;;;;5060829;28;20043;-77
2023/06/25 01:45:48;;;;;;;13.38;9.15;;;;;;;;;;5055059;28;20072;-76
2023/06/25 01:48:14;;;;;;;12.50;9.02;;;;;;;;;;5054541;28;20047;-77
2023/06/25 01:50:40;;;;;;;14.02;8.40;;;;;;;;;;5052719;28;20596;-76
2023/06/25 01:53:05;;;;;;;15.02;10.07;;;17.10;99.90;;;;;;5058379;28;20048;-77
2023/06/25 01:55:31;;;;;;;12.80;9.50;;;;;;;;;;5035443;28;20482;-77
2023/06/25 01:57:57;;;;;;;15.88;9.77;;;;;;;;;;5059925;28;20094;-77
2023/06/25 02:00:26;;;;;;;13.05;10.05;;;17.10;99.90;;;;;;5058083;28;20051;-77
2023/06/25 02:02:52;;;;;;;16.15;9.57;;;;;;;;;;5059688;28;20059;-77
2023/06/25 02:05:18;;;;;;;18.52;10.27;;;;;;;;;;5058370;28;20036;-77
2023/06/25 02:07:44;;;;;;;14.75;10.07;;;;;;;;;;5061363;28;20517;-77
2023/06/25 02:10:12;;;;;;;17.95;11.55;;;;;;;;;;5059936;28;20044;-76
2023/06/25 02:12:38;;;;;;;15.73;10.52;;;;;;;;;;5053155;28;20420;-78
2023/06/25 02:15:04;;;;;;;17.25;10.60;;;17.10;99.90;;;;;;5056371;28;20126;-76
2023/06/25 02:17:30;;;;;;;15.10;10.30;;;;;;;;;;5052906;28;20083;-77
2023/06/25 02:19:56;;;;;;;13.18;10.35;;;;;;;;;;5046989;28;20171;-76
2023/06/25 02:22:21;;;;;;;14.90;10.48;;;17.10;99.90;;;;;;5056027;28;20041;-76
2023/06/25 02:24:47;;;;;;;13.07;10.10;;;;;;;;;;5052494;28;20772;-76
2023/06/25 02:27:13;;;;;;;16.98;10.73;;;;;;;;;;5057854;28;20505;-76
2023/06/25 02:29:39;;;;;;;15.07;10.63;;;;;;;;;;5035242;28;20048;-76
2023/06/25 02:32:05;;;;;;;15.90;10.55;;;17.10;99.90;;;;;;5055886;28;20060;-77
2023/06/25 02:34:31;;;;;;;12.07;9.57;;;;;;;;;;5056658;28;20048;-76
2023/06/25 02:36:57;;;;;;;16.00;10.48;;;;;;;;;;5059294;28;20483;-76
2023/06/25 02:39:23;;;;;;;12.70;9.68;;;;;;;;;;5054061;28;20087;-76
2023/06/25 02:41:49;;;;;;;15.93;10.60;;;;;;;;;;5050628;28;20128;-77
2023/06/25 02:44:15;;;;;;;16.85;11.07;;;;;;;;;;5051349;28;20102;-76
2023/06/25 02:46:41;;;;;;;14.90;10.80;;;;;;;;;;5056155;28;20047;-77
2023/06/25 02:49:07;;;;;;;13.90;9.70;;;17.10;99.90;;;;;;5056245;28;20087;-76
2023/06/25 02:51:33;;;;;;;14.32;10.70;;;;;;;;;;5056191;28;20051;-76
2023/06/25 02:53:58;;;;;;;13.77;9.95;;;16.90;99.90;;;;;;5020155;28;20080;-76
2023/06/25 02:56:24;;;;;;;16.70;10.40;;;;;;;;;;5049891;28;20204;-77
2023/06/25 02:58:50;;;;;;;19.67;10.90;;;16.70;99.90;;;;;;5059135;28;20079;-75
2023/06/25 03:01:16;;;;;;;20.40;11.38;;;;;;;;;;5057371;28;20040;-75
2023/06/25 03:03:42;;;;;;;17.90;12.65;;;;;;;;;;5059058;28;20133;-75
2023/06/25 03:06:07;;;;;;;14.77;10.48;;;16.90;99.90;;;;;;5057520;28;20174;-75
2023/06/25 03:08:33;;;;;;;15.43;10.77;;;16.90;99.90;;;;;;5065517;28;20040;-75
2023/06/25 03:10:59;;;;;;;16.15;11.00;;;;;;;;;;5055940;28;20469;-75
2023/06/25 03:13:25;;;;;;;19.27;12.48;;;;;;;;;;5025851;28;20043;-75
2023/06/25 03:15:51;;;;;;;18.92;11.55;;;;;;;;;;5055592;28;20043;-75
2023/06/25 03:18:17;;;;;;;18.83;11.35;;;;;;;;;;5049799;28;20095;-75
2023/06/25 03:20:42;;;;;;;17.67;11.88;;;16.80;99.90;;;;;;5056715;28;20037;-75
2023/06/25 03:23:08;;;;;;;16.20;11.45;;;;;;;;;;5057294;28;20044;-75
2023/06/25 03:25:34;;;;;;;20.38;11.38;;;;;;;;;;5065567;28;20133;-75
2023/06/25 03:28:00;;;;;;;18.27;11.02;;;;;;;;;;5058464;28;20044;-75
2023/06/25 03:30:26;;;;;;;16.85;11.40;;;;;;;;;;5057713;28;20037;-75
2023/06/25 03:32:52;;;;;;;18.40;11.98;;;;;;;;;;5056353;28;20059;-75
2023/06/25 03:35:18;;;;;;;20.45;11.98;;;17.10;99.90;;;;;;5050580;28;20389;-75
2023/06/25 03:37:44;;;;;;;17.92;12.30;;;;;;;;;;5052201;28;20048;-74
2023/06/25 03:40:10;;;;;;;20.33;12.55;;;17.00;99.90;;;;;;5055084;28;20056;-75
2023/06/25 03:42:36;;;;;;;20.77;11.77;;;;;;;;;;5068744;28;20341;-75
2023/06/25 03:45:02;;;;;;;18.30;13.13;;;17.20;99.90;;;;;;5064690;28;20051;-75
2023/06/25 03:47:28;;;;;;;20.65;13.20;;;;;;;;;;5064743;28;20456;-74
2023/06/25 03:49:54;;;;;;;21.08;13.05;;;;;;;;;;5061246;28;20489;-75
2023/06/25 03:52:20;;;;;;;23.10;13.30;;;;;;;;;;5068721;28;20131;-74
2023/06/25 03:54:46;;;;;;;20.88;13.38;;;;;;;;;;5069082;28;20040;-75
2023/06/25 03:57:12;;;;;;;20.15;13.38;;;;;;;;;;5056510;28;20052;-75
2023/06/25 03:59:38;;;;;;;19.48;13.63;;;;;;;;;;5068733;28;20074;-75
2023/06/25 04:02:05;;;;;;;19.95;12.93;;;17.20;99.90;;;;;;5068697;28;21613;-75
2023/06/25 04:04:31;;;;;;;19.48;13.80;;;;;;;;;;5065039;28;20040;-75
2023/06/25 04:06:57;;;;;;;19.55;13.43;;;;;;;;;;5057217;28;20044;-75
2023/06/25 04:09:23;;;;;;;21.35;14.48;;;;;;;;;;5060083;28;20041;-74
2023/06/25 04:11:48;;;;;;;19.85;12.82;;;17.10;99.90;;;;;;5060057;28;20048;-74
2023/06/25 04:14:14;;;;;;;21.83;13.57;;;;;;;;;;5062190;28;20510;-75
2023/06/25 04:16:40;;;;;;;22.88;14.30;;;;;;;;;;5047755;28;20457;-75
2023/06/25 04:19:06;;;;;;;22.27;14.23;;;;;;;;;;5068266;28;20043;-75
2023/06/25 04:21:32;;;;;;;25.23;13.30;;;;;;;;;;5057671;28;20044;-74
2023/06/25 04:23:58;;;;;;;22.10;14.43;;;;;;;;;;5036466;28;20132;-75
2023/06/25 04:26:24;;;;;;;22.75;13.85;;;17.60;99.90;;;;;;5054660;28;20131;-74
2023/06/25 04:28:50;;;;;;;21.42;14.02;;;;;;;;;;5062440;28;20569;-75
2023/06/25 04:31:16;;;;;;;25.73;14.70;;;;;;;;;;5056493;28;20502;-75
2023/06/25 04:33:42;;;;;;;21.92;14.90;;;;;;;;;;5068409;28;20048;-74
2023/06/25 04:36:10;;;;;;;23.23;14.68;;;17.70;99.90;;;;;;5059996;28;20533;-74
2023/06/25 04:38:37;;;;;;;22.15;14.38;;;;;;;;;;5068398;28;20117;-75
2023/06/25 04:41:03;;;;;;;21.80;13.52;;;;;;;;;;5068846;28;20809;-74
2023/06/25 04:43:29;;;;;;;19.63;13.18;;;;;;;;;;5052466;28;20044;-74
2023/06/25 04:45:55;;;;;;;21.80;14.30;;;;;;;;;;5068272;28;20476;-74
2023/06/25 04:48:21;;;;;;;20.52;14.18;;;;;;;;;;5055523;28;20052;-75
2023/06/25 04:50:47;;;;;;;22.85;13.73;;;;;;;;;;5068387;28;20036;-74
2023/06/25 04:53:13;;;;;;;19.85;12.40;;;18.30;99.90;;;;;;5060026;28;20441;-74
2023/06/25 04:55:39;;;;;;;17.23;12.07;;;;;;;;;;5059508;28;20052;-75
2023/06/25 04:58:04;;;;;;;23.75;13.10;;;18.50;99.90;;;;;;5062072;28;20418;-75
2023/06/25 05:00:30;;;;;;;16.77;11.98;;;;;;;;;;5068177;28;20108;-72
2023/06/25 05:02:56;;;;;;;17.45;11.35;;;;;;;;;;5060292;28;20050;-72
2023/06/25 05:05:22;;;;;;;18.35;11.50;;;;;;;;;;5055216;28;20131;-72
2023/06/25 05:07:48;;;;;;;15.35;10.80;;;;;;;;;;5055452;28;20051;-73
2023/06/25 05:10:15;;;;;;;16.40;10.90;;;19.90;99.90;;;;;;5053475;28;20406;-73
2023/06/25 05:12:41;;;;;;;14.45;10.48;;;;;;;;;;5067455;28;20054;-72
2023/06/25 05:15:07;;;;;;;13.98;9.40;;;20.40;99.90;;;;;;5058164;28;20502;-73
2023/06/25 05:17:33;;;;;;;13.85;9.48;;;20.50;99.90;;;;;;5056793;28;20040;-72
2023/06/25 05:19:58;;;;;;;12.30;8.75;;;20.50;99.90;;;;;;5067931;28;20032;-72
2023/06/25 05:22:25;;;;;;;15.68;9.63;;;;;;;;;;5067558;28;20045;-72
2023/06/25 05:24:51;;;;;;;13.80;9.48;;;20.80;99.90;;;;;;5067786;28;20114;-72
2023/06/25 05:27:16;;;;;;;12.73;8.85;;;21.10;99.90;;;;;;5067837;28;20048;-72
2023/06/25 05:29:42;;;;;;;14.70;8.82;;;21.40;99.90;;;;;;5065111;28;20824;-72
2023/06/25 05:32:07;;;;;;;13.23;8.50;;;21.20;99.90;;;;;;5068080;28;20044;-72
2023/06/25 05:34:33;;;;;;;11.13;8.13;;;22.00;99.90;;;;;;5056523;28;20165;-72
2023/06/25 05:36:59;;;;;;;15.43;9.25;;;22.00;99.90;;;;;;5067425;28;20052;-72
2023/06/25 05:39:29;;;;;;;15.68;9.57;;;24.00;99.90;;;;;;5067587;28;20387;-71
2023/06/25 05:41:58;;;;;;;12.35;8.57;;;22.30;99.90;;;;;;5053567;28;20444;-73
2023/06/25 05:44:24;;;;;;;11.07;8.07;;;22.70;99.90;;;;;;5054825;28;20117;-74
2023/06/25 05:46:50;;;;;;;15.30;8.98;;;23.10;99.90;;;;;;5058887;28;20036;-74
2023/06/25 05:49:16;;;;;;;12.38;8.85;;;23.50;99.90;;;;;;5062501;28;20106;-74
2023/06/25 05:51:41;;;;;;;11.50;7.95;;;23.50;99.90;;;;;;5057587;28;20032;-73
2023/06/25 05:54:07;;;;;;;14.93;9.40;;;24.10;99.90;;;;;;5059382;28;20049;-74
2023/06/25 05:56:32;;;;;;;13.20;8.07;;;24.30;99.90;;;;;;5059975;28;20045;-74
2023/06/25 05:58:58;;;;;;;12.32;7.85;;;26.10;99.90;;;;;;5059446;28;20052;-74
2023/06/25 06:01:25;;;;;;;11.30;7.95;;;25.10;99.90;;;;;;5057943;28;20056;-74
2023/06/25 06:03:51;;;;;;;11.63;8.15;;;24.90;99.90;;;;;;5051107;28;20068;-74
2023/06/25 06:06:17;;;;;;;12.60;7.90;;;25.60;99.90;;;;;;5065815;28;20036;-74
2023/06/25 06:08:43;;;;;;;13.88;8.30;;;26.20;99.90;;;;;;5055818;28;20114;-73
2023/06/25 06:11:10;;;;;;;12.07;8.18;;;26.40;99.90;;;;;;5043217;28;20105;-74
2023/06/25 06:13:36;;;;;;;12.10;8.45;;;26.30;99.90;;;;;;5053798;28;20047;-74
2023/06/25 06:16:02;;;;;;;10.25;7.80;;;26.70;99.90;;;;;;5062291;28;20048;-74
2023/06/25 06:18:27;;;;;;;11.57;8.73;;;26.70;99.90;;;;;;5066144;28;20044;-74
2023/06/25 06:20:53;;;;;;;14.25;9.43;;;28.40;99.90;;;;;;5065665;28;20059;-73
2023/06/25 06:23:18;;;;;;;13.52;9.57;;;28.10;99.90;;;;;;5061844;28;20044;-74
2023/06/25 06:25:44;;;;;;;10.40;8.30;;;27.20;99.90;;;;;;5049811;28;20044;-74
2023/06/25 06:28:10;;;;;;;11.43;8.60;;;28.70;99.90;;;;;;5035541;28;20072;-74
2023/06/25 06:30:35;;;;;;;15.38;8.30;;;26.40;99.90;;;;;;5052969;28;20040;-75
2023/06/25 06:33:01;;;;;;;9.73;8.07;;;28.60;99.90;;;;;;5057774;28;20117;-75
2023/06/25 06:35:26;;;;;;;10.32;8.07;;;28.50;99.90;;;;;;5058629;28;20064;-74
2023/06/25 06:37:52;;;;;;;11.43;8.55;;;28.10;99.90;;;;;;5051016;28;20056;-73
2023/06/25 06:40:20;;;;;;;13.35;8.15;;;28.20;99.90;;;;;;5052561;28;20053;-73
2023/06/25 06:42:45;;;;;;;10.45;8.30;;;28.40;99.90;;;;;;5054298;28;20041;-74
2023/06/25 06:45:11;;;;;;;14.75;8.55;;;26.20;99.90;;;;;;5065438;28;20089;-73
2023/06/25 06:47:36;;;;;;;10.18;8.27;;;25.90;99.90;;;;;;5060592;28;20041;-73
2023/06/25 06:50:02;;;;;;;13.60;9.15;;;27.20;99.90;;;;;;5065585;28;20047;-74
2023/06/25 06:52:27;;;;;;;11.80;8.95;;;25.20;99.90;;;;;;5055236;28;20055;-75
2023/06/25 06:54:53;;;;;;;11.82;9.27;;;24.70;99.90;;;;;;5061304;28;20048;-73
2023/06/25 06:57:18;;;;;;;13.35;10.73;;;24.40;99.90;;;;;;5056431;28;20460;-75
2023/06/25 06:59:45;;;;;;;14.32;9.68;;;24.20;99.90;;;;;;5059777;28;20055;-73
2023/06/25 07:02:11;;;;;;;12.32;9.93;;;26.00;99.90;;;;;;5057651;28;20055;-75
2023/06/25 07:04:37;;;;;;;12.25;9.73;;;25.40;99.90;;;;;;5050954;28;20040;-76
2023/06/25 07:07:03;;;;;;;12.30;10.10;;;25.60;99.90;;;;;;5046477;28;20048;-72
2023/06/25 07:09:29;;;;;;;13.57;10.35;;;24.10;99.90;;;;;;5046846;28;20473;-73
2023/06/25 07:11:54;;;;;;;13.60;9.27;;;26.10;99.90;;;;;;5059090;28;20481;-73
2023/06/25 07:14:20;;;;;;;10.93;9.65;;;24.70;99.90;;;;;;5057771;28;20052;-73
2023/06/25 07:16:45;;;;;;;13.52;9.77;;;23.70;99.90;;;;;;5068037;28;20402;-73
2023/06/25 07:19:11;;;;;;;15.32;9.65;;;23.90;99.90;;;;;;5055172;28;20106;-73
2023/06/25 07:21:38;;;;;;;10.45;8.88;;;25.70;99.90;;;;;;5068067;28;20495;-75
2023/06/25 07:24:04;;;;;;;14.10;10.60;;;26.00;99.90;;;;;;5054695;28;20173;-73
2023/06/25 07:26:29;;;;;;;12.05;9.35;;;24.00;99.90;;;;;;5046658;28;20036;-73
2023/06/25 07:28:55;;;;;;;11.65;8.70;;;24.20;99.90;;;;;;5057253;28;20040;-73
2023/06/25 07:31:21;;;;;;;14.57;9.40;;;24.20;99.90;;;;;;5062576;28;20056;-73
2023/06/25 07:33:46;;;;;;;11.23;9.50;;;25.90;99.90;;;;;;5068813;28;20033;-72
2023/06/25 07:36:12;;;;;;;11.27;8.65;;;25.50;99.90;;;;;;5060008;28;20048;-73
2023/06/25 07:38:37;;;;;;;10.00;8.93;;;24.70;99.90;;;;;;5047903;28;20052;-74
2023/06/25 07:41:03;;;;;;;9.90;8.07;;;25.50;99.90;;;;;;5058916;28;20099;-73
2023/06/25 07:43:29;;;;;;;10.80;8.27;;;24.70;99.90;;;;;;5058297;28;20048;-73
2023/06/25 07:45:55;;;;;;;11.20;7.47;;;25.90;99.90;;;;;;5058543;28;20041;-73
2023/06/25 07:48:20;;;;;;;9.52;7.45;;;24.60;99.90;;;;;;5052555;28;20282;-73
2023/06/25 07:50:46;;;;;;;11.43;7.32;;;24.90;99.90;;;;;;5059522;28;20055;-74
2023/06/25 07:53:12;;;;;;;8.57;6.50;;;24.90;99.90;;;;;;5061936;28;20059;-76
2023/06/25 07:55:41;;;;;;;9.88;6.68;;;24.90;99.90;;;;;;5060852;28;20040;-75
2023/06/25 07:58:08;;;;;;;9.35;5.43;;;24.90;99.90;;;;;;5060961;28;20056;-76
2023/06/25 08:00:34;;;;;;;9.48;5.65;;;25.00;99.90;;;;;;5056064;28;20048;-77
2023/06/25 08:03:00;;;;;;;10.75;5.53;;;25.90;99.90;;;;;;5054196;28;20110;-76
2023/06/25 08:05:26;;;;;;;9.25;5.63;;;25.10;99.90;;;;;;5063472;28;20040;-76
2023/06/25 08:07:51;;;;;;;8.27;5.57;;;25.50;99.90;;;;;;5058771;28;20033;-78
2023/06/25 08:10:17;;;;;;;8.32;6.20;;;25.40;99.90;;;;;;5053457;28;20102;-76
2023/06/25 08:12:42;;;;;;;10.38;5.32;;;25.10;99.90;;;;;;5054733;28;20079;-77
2023/06/25 08:15:08;;;;;;;7.20;5.07;;;25.40;99.90;;;;;;5057553;28;20094;-76
2023/06/25 08:17:34;;;;;;;7.65;4.78;;;25.40;99.90;;;;;;5050055;28;20553;-79
2023/06/25 08:20:00;;;;;;;14.00;5.43;;;25.30;99.90;;;;;;5062290;28;20044;-76
2023/06/25 08:22:25;;;;;;;8.65;4.10;;;25.90;99.90;;;;;;5043824;28;20041;-75
2023/06/25 08:24:51;;;;;;;6.97;4.90;;;26.70;99.90;;;;;;5054252;28;20044;-75
2023/06/25 08:27:16;;;;;;;7.72;4.60;;;25.40;99.90;;;;;;5052529;28;20071;-76
2023/06/25 08:29:42;;;;;;;5.72;3.70;;;25.80;99.90;;;;;;5057507;28;20048;-75
2023/06/25 08:32:08;;;;;;;6.78;4.10;;;25.70;99.90;;;;;;5067774;28;20486;-75
2023/06/25 08:34:33;;;;;;;7.35;4.72;;;27.30;99.90;;;;;;5056718;28;20122;-76
2023/06/25 08:36:59;;;;;;;5.30;3.58;;;25.80;99.90;;;;;;5067504;28;20227;-78
2023/06/25 08:39:24;;;;;;;6.97;4.97;;;25.60;99.90;;;;;;5056852;28;20059;-76
2023/06/25 08:41:50;;;;;;;5.07;3.55;;;25.80;99.90;;;;;;5057273;28;20056;-78
2023/06/25 08:44:16;;;;;;;6.15;3.55;;;27.30;99.90;;;;;;5048814;28;20041;-78
2023/06/25 08:46:49;;;;;;;5.13;3.58;;;26.00;99.90;;;;;;5058861;28;20055;-77
2023/06/25 08:49:16;;;;;;;6.07;3.95;;;26.80;99.90;;;;;;5059893;28;20041;-78
2023/06/25 08:51:42;;;;;;;8.00;4.30;;;26.50;99.90;;;;;;5067089;28;20053;-77
2023/06/25 08:54:08;;;;;;;6.70;3.92;;;27.40;99.90;;;;;;5055995;28;20417;-75
2023/06/25 08:56:34;;;;;;;11.18;3.58;;;26.10;99.90;;;;;;5043056;28;20197;-76
2023/06/25 08:58:59;;;;;;;6.93;4.15;;;26.20;99.90;;;;;;5053751;28;20090;-77
2023/06/25 09:01:25;;;;;;;5.90;4.20;;;26.20;99.90;;;;;;5060421;28;20048;-75
2023/06/25 09:03:52;;;;;;;4.28;3.20;;;26.40;99.90;;;;;;5056330;28;20044;-75
2023/06/25 09:06:18;;;;;;;8.68;3.90;;;26.50;99.90;;;;;;5025111;28;20048;-75
2023/06/25 09:08:44;;;;;;;7.55;4.38;;;27.30;99.90;;;;;;5049529;28;20475;-77
2023/06/25 09:11:10;;;;;;;6.13;4.20;;;26.90;99.90;;;;;;5062804;28;20036;-76
2023/06/25 09:13:37;;;;;;;6.53;3.58;;;26.30;99.90;;;;;;5045123;28;20799;-76
2023/06/25 09:16:08;;;;;;;6.47;3.35;;;28.10;99.90;;;;;;5037767;28;20064;-76
2023/06/25 09:18:33;;;;;;;6.28;4.45;;;26.20;99.90;;;;;;5060964;28;20820;-76
2023/06/25 09:21:04;;;;;;;4.63;3.67;;;29.00;99.90;;;;;;5066820;28;20037;-76
2023/06/25 09:23:30;;;;;;;5.28;3.65;;;26.70;99.90;;;;;;5062848;28;20044;-76
2023/06/25 09:25:56;;;;;;;4.50;3.10;;;27.60;99.90;;;;;;5046743;28;20402;-79
2023/06/25 09:28:21;;;;;;;6.93;3.78;;;28.20;99.90;;;;;;5066218;28;20152;-74
2023/06/25 09:30:47;;;;;;;8.75;3.40;;;26.80;99.90;;;;;;5058197;28;20033;-75
2023/06/25 09:33:13;;;;;;;4.68;3.40;;;27.40;99.90;;;;;;5042834;28;20044;-78
2023/06/25 09:35:39;;;;;;;4.93;3.08;;;27.00;99.90;;;;;;5038608;28;20095;-75
2023/06/25 09:38:05;;;;;;;9.25;3.63;;;26.90;99.90;;;;;;5066757;28;20083;-74
2023/06/25 09:40:31;;;;;;;6.75;3.50;;;26.90;99.90;;;;;;5050808;28;20131;-78
2023/06/25 09:42:58;;;;;;;6.95;4.18;;;27.20;99.90;;;;;;5056204;28;20496;-77
2023/06/25 09:45:25;;;;;;;7.93;3.38;;;27.10;99.90;;;;;;5055305;28;20446;-78
2023/06/25 09:47:53;;;;;;;9.05;4.00;;;27.00;99.90;;;;;;5053206;28;20123;-74
2023/06/25 09:50:20;;;;;;;7.45;4.72;;;28.10;99.90;;;;;;5059526;28;20037;-73
2023/06/25 09:52:54;;;;;;;5.85;3.28;;;26.90;99.90;;;;;;5062201;28;20040;-73
2023/06/25 09:55:21;;;;;;;8.23;3.85;;;27.20;99.90;;;;;;5060404;28;20048;-73
2023/06/25 09:57:48;;;;;;;7.13;4.35;;;27.40;99.90;;;;;;5061073;28;20486;-73
2023/06/25 10:00:14;;;;;;;6.13;3.80;;;27.30;99.90;;;;;;5056168;28;20056;-73
2023/06/25 10:02:40;;;;;;;7.20;4.30;;;27.40;99.90;;;;;;5065720;28;20512;-73
2023/06/25 10:05:06;;;;;;;6.38;3.85;;;28.70;99.90;;;;;;5065969;28;20110;-74
2023/06/25 10:07:32;;;;;;;8.07;3.88;;;27.80;99.90;;;;;;5056540;28;20046;-74
2023/06/25 10:09:57;;;;;;;7.40;3.55;;;27.60;99.90;;;;;;5065828;28;20051;-73
2023/06/25 10:12:23;;;;;;;4.95;3.10;;;29.50;99.90;;;;;;5065926;28;20406;-74
2023/06/25 10:14:49;;;;;;;6.18;3.65;;;27.80;99.90;;;;;;5052287;28;21084;-74
2023/06/25 10:17:14;;;;;;;5.93;3.65;;;27.90;99.90;;;;;;5051243;28;20051;-72
2023/06/25 10:19:52;;;;;;;5.85;3.80;;;27.80;99.90;;;;;;5060061;28;20040;-74
2023/06/25 10:22:22;;;;;;;4.22;3.10;;;29.40;99.90;;;;;;5056408;28;20040;-74
2023/06/25 10:24:49;;;;;;;6.88;3.17;;;27.60;99.90;;;;;;5063446;28;20161;-72
2023/06/25 10:27:30;;;;;;;6.72;3.92;;;28.00;99.90;;;;;;5059310;28;20045;-73
2023/06/25 10:29:56;;;;;;;7.05;3.78;;;29.50;99.90;;;;;;5067733;28;20115;-73
2023/06/25 10:32:24;;;;;;;7.97;3.33;;;29.90;99.90;;;;;;5057240;28;20464;-74
2023/06/25 10:34:54;;;;;;;7.25;4.22;;;27.80;99.90;;;;;;5040154;28;20056;-74
2023/06/25 10:37:20;;;;;;;7.93;4.28;;;29.60;99.90;;;;;;5051750;28;20056;-74
2023/06/25 10:39:46;;;;;;;9.52;4.68;;;28.00;99.90;;;;;;5057634;28;20341;-74
2023/06/25 10:42:13;;;;;;;10.90;4.30;;;27.90;99.90;;;;;;5053449;28;20059;-74
2023/06/25 10:44:40;;;;;;;8.88;3.78;;;27.90;99.90;;;;;;5065267;28;20044;-74
2023/06/25 10:47:10;;;;;;;6.95;3.00;;;29.70;99.90;;;;;;5065130;28;20029;-74
2023/06/25 10:49:36;;;;;;;7.45;3.65;;;28.30;99.90;;;;;;5064901;28;20131;-74
2023/06/25 10:52:03;;;;;;;7.03;3.72;;;28.30;99.90;;;;;;5056445;28;20083;-74
2023/06/25 10:54:31;;;;;;;7.15;4.40;;;28.20;99.90;;;;;;5059969;28;20050;-74
2023/06/25 10:57:07;;;;;;;7.82;3.63;;;28.20;99.90;;;;;;5065325;28;20163;-74
2023/06/25 10:59:33;;;;;;;5.57;3.30;;;28.70;99.90;;;;;;5057941;28;20127;-74
2023/06/25 11:02:18;;;;;;;4.38;3.15;;;28.40;99.90;;;;;;5050867;28;20121;-74
2023/06/25 11:04:56;;;;;;;4.90;3.22;;;29.90;99.90;;;;;;5028151;28;20068;-74
2023/06/25 11:07:23;;;;;;;5.00;3.03;;;28.80;99.90;;;;;;5060859;28;20048;-74
2023/06/25 11:09:57;;;;;;;4.85;3.10;;;28.70;99.90;;;;;;5061320;28;20046;-74
2023/06/25 11:12:22;;;;;;;6.00;3.20;;;28.80;99.90;;;;;;5065751;28;20695;-74
2023/06/25 11:14:48;;;;;;;6.22;3.38;;;28.60;99.90;;;;;;5058307;28;20044;-74
2023/06/25 11:17:15;;;;;;;9.07;3.45;;;29.90;99.90;;;;;;5049126;28;20577;-75
2023/06/25 11:19:40;;;;;;;6.07;3.40;;;28.50;99.90;;;;;;5054559;28;20044;-73
2023/06/25 11:22:09;;;;;;;5.15;3.10;;;28.50;99.90;;;;;;5056724;28;20041;-74
2023/06/25 11:24:38;;;;;;;5.30;3.15;;;29.90;99.90;;;;;;5065020;28;20037;-74
2023/06/25 11:27:05;;;;;;;6.45;3.22;;;29.80;99.90;;;;;;5065016;28;20044;-74
2023/06/25 11:29:38;;;;;;;8.38;3.33;;;28.50;99.90;;;;;;5054430;28;20040;-73
2023/06/25 11:32:07;;;;;;;5.40;2.95;;;28.50;99.90;;;;;;5055310;28;20048;-75
2023/06/25 11:34:33;;;;;;;4.75;3.20;;;28.70;99.90;;;;;;5064246;28;20044;-73
2023/06/25 11:37:10;;;;;;;6.25;2.85;;;30.00;99.90;;;;;;5056800;28;20079;-74
2023/06/25 11:39:52;;;;;;;6.00;2.80;;;28.70;99.90;;;;;;5042627;28;20049;-74
2023/06/25 11:42:19;;;;;;;4.18;2.45;;;30.30;99.90;;;;;;5064739;28;20048;-74
2023/06/25 11:44:56;;;;;;;5.45;2.90;;;28.90;99.90;;;;;;5060334;28;20044;-73
2023/06/25 11:47:22;;;;;;;5.25;2.40;;;30.50;99.90;;;;;;5064062;28;20040;-73
2023/06/25 11:49:58;;;;;;;4.43;2.67;;;28.90;99.90;;;;;;5064911;28;20037;-74
2023/06/25 11:52:24;;;;;;;7.53;2.80;;;28.70;99.90;;;;;;5054676;28;20059;-75
2023/06/25 11:54:50;;;;;;;6.57;2.85;;;30.10;99.90;;;;;;5048349;28;20040;-74
2023/06/25 11:57:17;;;;;;;7.25;2.53;;;29.20;99.90;;;;;;5063127;28;20054;-73
2023/06/25 11:59:43;;;;;;;4.22;2.90;;;28.60;99.90;;;;;;5063182;28;20089;-74
2023/06/25 12:02:09;;;;;;;5.53;3.58;;;29.70;99.90;;;;;;5068575;28;20048;-74
2023/06/25 12:04:35;;;;;;;6.47;3.10;;;29.50;99.90;;;;;;5060661;28;20044;-74
2023/06/25 12:07:01;;;;;;;4.38;2.70;;;28.80;99.90;;;;;;5049126;28;20337;-74
2023/06/25 12:09:27;;;;;;;5.00;2.55;;;29.40;99.90;;;;;;5042150;28;20084;-75
2023/06/25 12:11:53;;;;;;;5.22;2.83;;;28.90;99.90;;;;;;5052736;28;20075;-74
2023/06/25 12:14:18;;;;;;;4.18;2.88;;;31.20;99.90;;;;;;5070018;28;20123;-73
2023/06/25 12:16:44;;;;;;;5.03;3.13;;;30.60;99.90;;;;;;5060091;28;20104;-74
2023/06/25 12:19:09;;;;;;;6.53;3.63;;;29.90;99.90;;;;;;5056375;28;20044;-74
2023/06/25 12:21:35;;;;;;;5.07;3.15;;;28.90;99.90;;;;;;5043572;28;20100;-74
2023/06/25 12:24:00;;;;;;;7.07;3.47;;;29.10;99.90;;;;;;5024300;28;20032;-74
2023/06/25 12:26:26;;;;;;;4.68;3.33;;;30.40;99.90;;;;;;5066160;28;20043;-75
2023/06/25 12:28:52;;;;;;;5.47;3.50;;;29.70;99.90;;;;;;5055928;28;20075;-75
2023/06/25 12:31:17;;;;;;;4.90;3.72;;;29.70;99.90;;;;;;5055661;28;20037;-75
2023/06/25 12:33:43;;;;;;;5.63;3.03;;;29.30;99.90;;;;;;5066248;28;20097;-74
2023/06/25 12:36:08;;;;;;;5.90;3.63;;;29.00;99.90;;;;;;5051685;28;20052;-74
2023/06/25 12:38:36;;;;;;;6.75;3.70;;;29.80;99.90;;;;;;5065806;28;20040;-74
2023/06/25 12:41:02;;;;;;;7.28;3.92;;;30.10;99.90;;;;;;5055563;28;20049;-74
2023/06/25 12:43:27;;;;;;;5.13;3.53;;;30.30;99.90;;;;;;5051177;28;20463;-74
2023/06/25 12:45:53;;;;;;;7.15;3.90;;;29.90;99.90;;;;;;5029577;28;20043;-74
2023/06/25 12:48:18;;;;;;;7.28;3.38;;;30.20;99.90;;;;;;5061723;28;20048;-74
2023/06/25 12:50:44;;;;;;;5.82;3.30;;;30.50;99.90;;;;;;5054266;28;20040;-74
2023/06/25 12:53:10;;;;;;;5.35;3.25;;;29.90;99.90;;;;;;5051918;28;20058;-74
2023/06/25 12:55:36;;;;;;;6.18;3.78;;;29.20;99.90;;;;;;5055455;28;20135;-75
2023/06/25 12:58:02;;;;;;;9.52;3.72;;;29.00;99.90;;;;;;5059054;28;20559;-74
2023/06/25 13:00:28;;;;;;;5.65;3.72;;;29.30;99.90;;;;;;5065630;28;20037;-74
2023/06/25 13:02:53;;;;;;;5.95;3.60;;;29.30;99.90;;;;;;5061188;28;20045;-74